Airfield :
LOGIN :

Register | Disclaimer

   EN    FR    IT 

 










Legend :    VFR   Marginal VFR   IFR   Intensive IFR   Very Intensive IFR
Visi :
Ceiling :
>= 8 km
>= 3000ft
5 to 8 km
1000 to 3000 ft
1500m to 5 km
500 to 1000 ft
800 to 1500m
200 to 500 ft
< 800m
< 200 ft
Symbols :   Thunderstorms  Fog  Heavy snow  Heavy precipitations  Wind > 20 kt
SIGMETs :     Misc.  Thunderstorms  Icing  Turbulence  Mountain Waves  Volcanic Ashes






- Airport Elevation : 527 ft
- IATA code : DBV


LDDU - Dubrovnik

CURRENT METAR :
  • 022000Z 03003KT 330V070 CAVOK 06/M01 Q1013 NOSIG

EXPIRED METARs :
  • 021930Z 02004KT CAVOK 06/M00 Q1013 NOSIG
  • 021900Z VRB01KT CAVOK 06/00 Q1013 NOSIG
  • 021830Z 00000KT CAVOK 07/00 Q1013 NOSIG
  • 021800Z 34004KT CAVOK 07/M00 Q1013 NOSIG
  • 021730Z 33004KT 300V360 CAVOK 08/M00 Q1013 NOSIG
  • 021700Z 29004KT 260V320 CAVOK 09/M01 Q1013 NOSIG

TAF TAF LDDU
Valid from the 02 at 18:00 until the 03 at 18:00 UTC


021725Z 0218/0318 VRB02KT CAVOK TX12/0311Z TN03/0305Z
TEMPO 0220/0306 03012KT
PROB30
TEMPO 0314/0318 28007KT



MET'MAP, your aeronautical weather chart ! - Copyright ORBIFLY December 2007 - Disclaimer

ORBIFLY MET'MAP TEAM :

Programming & Development : Alexandra Zaïnal
Concept & original design : Baudouin d'Aumeries
Assistance for programming : Marc-Olivier Méhu
Technical & hardware support : Manuel Goepfert

Contact : metmap@orbifly.com




SOURCES & CREDITS :

   NOAA